Hillside, Illinois
Current Conditions -  °F | °C
As of 11:51 PM on Wednesday 28 Jan 2015 (Local Time) from KORD Reporting Station
Overcast Overcast  
Wind Chill: 22°   Ceiling: 8500
Heat Index: 33°   Visibility: 10mi
Dew Point: 26°   Wind: 17mph
Humidity: 75%   Direction: 170°S
Pressure: 29.8"   Gusts: NA
Location:  41.87°N, 87.9°W
Report Text: KORD 290551Z 17015KT 10SM OVC085 01/M03 A2980 RMK AO2 SLP098 4/001 RAE49 P0001 60001 T00061033 10011 21006 400111072 58036
Loading
Personal Weather Stations






























Interactive Weather Map New forecast layout! Learn more

10-Day Weather Forecast

Advertisements
Track Severe Weather on mobile